createdAt,value
2022-09-12T00:02:18.488Z,99887.00
2022-09-12T00:08:20.799Z,99896.00
2022-09-12T00:14:23.301Z,99904.00
2022-09-12T00:20:25.592Z,99908.00
2022-09-12T00:26:27.945Z,99904.00
2022-09-12T00:32:30.095Z,99898.00
2022-09-12T00:38:32.818Z,99894.00
2022-09-12T00:44:35.132Z,99883.00
2022-09-12T00:50:37.546Z,99878.00
2022-09-12T00:56:43.757Z,99880.00
2022-09-12T01:02:59.195Z,99870.00
2022-09-12T01:09:04.546Z,99876.00
2022-09-12T01:15:07.398Z,99878.00
2022-09-12T01:21:14.867Z,99884.00
2022-09-12T01:27:43.036Z,99878.00
2022-09-12T01:34:13.405Z,99868.00
2022-09-12T01:40:23.827Z,99860.00
2022-09-12T01:46:35.602Z,99861.00
2022-09-12T01:52:43.331Z,99878.00
2022-09-12T01:58:48.585Z,99886.00
2022-09-12T02:05:17.797Z,99867.00
2022-09-12T02:11:20.854Z,99874.00
2022-09-12T02:17:25.147Z,99863.00
2022-09-12T02:23:31.769Z,99854.00
2022-09-12T02:29:34.125Z,99855.00
2022-09-12T02:35:56.321Z,99864.00
2022-09-12T02:42:01.462Z,99867.00
2022-09-12T02:48:13.611Z,99872.00
2022-09-12T02:54:18.162Z,99871.00
2022-09-12T03:00:20.805Z,99877.00
2022-09-12T03:06:22.834Z,99881.00
2022-09-12T03:12:50.008Z,99888.00
2022-09-12T03:19:20.318Z,99891.00
2022-09-12T03:25:39.139Z,99902.00
2022-09-12T03:31:56.194Z,99889.00
2022-09-12T03:37:58.587Z,99891.00
2022-09-12T03:44:00.891Z,99888.00
2022-09-12T03:50:03.417Z,99899.00
2022-09-12T03:56:10.477Z,99892.00
2022-09-12T04:02:14.105Z,99897.00
2022-09-12T04:08:16.441Z,99903.00
2022-09-12T04:14:18.594Z,99900.00
2022-09-12T04:20:20.840Z,99898.00
2022-09-12T04:26:23.215Z,99896.00
2022-09-12T04:32:25.330Z,99904.00
2022-09-12T04:38:27.696Z,99895.00
2022-09-12T04:44:30.203Z,99828.00
2022-09-12T04:50:32.505Z,99804.00
2022-09-12T04:56:39.390Z,99812.00
2022-09-12T05:02:42.227Z,99826.00
2022-09-12T05:08:44.455Z,99822.00
2022-09-12T05:14:46.709Z,99832.00
2022-09-12T05:20:48.795Z,99828.00
2022-09-12T05:26:51.005Z,99824.00
2022-09-12T05:32:53.055Z,99804.00
2022-09-12T05:38:55.449Z,99805.00
2022-09-12T05:44:57.813Z,99800.00
2022-09-12T05:51:05.021Z,99807.00
2022-09-12T05:57:07.054Z,99813.00
2022-09-12T06:03:09.123Z,99819.00
2022-09-12T06:09:11.580Z,99826.00
2022-09-12T06:15:14.738Z,99818.00
2022-09-12T06:21:17.104Z,99823.00
2022-09-12T06:27:19.250Z,99826.00
2022-09-12T06:33:21.511Z,99821.00
2022-09-12T06:39:23.861Z,99806.00
2022-09-12T06:45:26.652Z,99907.00
2022-09-12T06:51:29.337Z,99951.00
2022-09-12T06:57:32.956Z,99946.00
2022-09-12T07:03:35.557Z,99936.00
2022-09-12T07:09:37.552Z,99946.00
2022-09-12T07:15:40.650Z,99908.00
2022-09-12T07:21:42.771Z,99830.00
2022-09-12T07:27:49.301Z,99944.00
2022-09-12T07:33:54.833Z,99941.00
2022-09-12T07:39:57.854Z,99808.00
2022-09-12T07:46:00.209Z,99840.00
2022-09-12T07:52:02.742Z,99846.00
2022-09-12T07:58:05.305Z,99848.00
2022-09-12T08:04:07.668Z,99845.00
2022-09-12T08:10:10.355Z,99837.00
2022-09-12T08:16:21.706Z,99826.00
2022-09-12T08:22:24.470Z,99833.00
2022-09-12T08:28:26.715Z,99827.00
2022-09-12T08:34:29.064Z,99823.00
2022-09-12T08:40:31.279Z,99810.00
2022-09-12T08:46:47.228Z,99817.00
2022-09-12T08:53:04.822Z,99810.00
2022-09-12T08:59:09.377Z,99809.00
2022-09-12T09:05:23.619Z,99805.00
2022-09-12T09:11:56.151Z,99803.00
2022-09-12T09:18:29.461Z,99808.00
2022-09-12T09:24:43.442Z,99790.00
2022-09-12T09:30:46.844Z,99787.00
2022-09-12T09:36:52.984Z,99793.00
2022-09-12T09:43:00.904Z,99788.00
2022-09-12T09:49:04.328Z,99781.00
2022-09-12T09:55:13.187Z,99787.00
2022-09-12T10:01:20.129Z,99783.00
2022-09-12T10:07:24.163Z,99790.00
2022-09-12T10:13:35.904Z,99781.00
2022-09-12T10:19:40.599Z,99772.00
2022-09-12T10:25:47.774Z,99766.00
2022-09-12T10:31:55.261Z,99882.00
2022-09-12T10:38:06.648Z,99858.00
2022-09-12T10:44:14.383Z,99852.00
2022-09-12T10:50:39.384Z,99726.00
2022-09-12T10:57:07.907Z,99853.00
2022-09-12T11:03:25.117Z,99720.00
2022-09-12T11:09:47.623Z,99848.00
2022-09-12T11:16:02.021Z,99846.00
2022-09-12T11:22:39.803Z,99826.00
2022-09-12T11:29:05.822Z,99690.00
2022-09-12T11:35:33.132Z,99757.00
2022-09-12T11:41:42.494Z,99826.00
2022-09-12T11:47:49.576Z,99811.00
2022-09-12T11:54:12.395Z,99812.00
2022-09-12T12:00:23.523Z,99786.00
2022-09-12T12:06:32.461Z,99790.00
2022-09-12T12:12:35.098Z,99788.00
2022-09-12T12:18:39.230Z,99791.00
2022-09-12T12:25:00.319Z,99666.00
2022-09-12T12:31:03.453Z,99792.00
2022-09-12T12:37:23.855Z,99796.00
2022-09-12T12:43:33.129Z,99800.00
2022-09-12T12:49:35.370Z,99809.00
2022-09-12T12:55:44.592Z,99823.00
2022-09-12T13:02:06.041Z,99844.00
2022-09-12T13:08:29.168Z,99850.00
2022-09-12T13:14:50.105Z,99870.00
2022-09-12T13:21:13.855Z,99856.00
2022-09-12T13:27:24.853Z,99860.00
2022-09-12T13:33:32.737Z,99885.00
2022-09-12T13:39:50.973Z,99855.00
2022-09-12T13:45:53.439Z,99857.00
2022-09-12T13:52:16.469Z,99858.00
2022-09-12T13:58:24.634Z,99862.00
2022-09-12T14:04:45.534Z,99870.00
2022-09-12T14:10:50.705Z,99865.00
2022-09-12T14:16:53.966Z,99876.00
2022-09-12T14:22:56.160Z,99886.00
2022-09-12T14:28:58.380Z,99877.00
2022-09-12T14:35:12.893Z,99878.00
2022-09-12T14:41:26.339Z,99878.00
2022-09-12T14:47:39.190Z,99884.00
2022-09-12T14:53:48.490Z,99890.00
2022-09-12T14:59:51.131Z,99885.00
2022-09-12T15:05:53.241Z,99887.00
2022-09-12T15:11:55.515Z,99872.00
2022-09-12T15:17:57.524Z,99878.00
2022-09-12T15:23:59.774Z,99882.00
2022-09-12T15:30:01.879Z,99874.00
2022-09-12T15:36:04.730Z,99866.00
2022-09-12T15:42:07.209Z,99875.00
2022-09-12T15:48:10.398Z,99868.00
2022-09-12T15:54:15.437Z,99865.00
2022-09-12T16:00:18.540Z,99876.00
2022-09-12T16:06:20.643Z,99883.00
2022-09-12T16:12:25.842Z,99896.00
2022-09-12T16:18:28.972Z,99887.00
2022-09-12T16:24:31.708Z,99898.00
2022-09-12T16:30:34.536Z,99903.00
2022-09-12T16:36:36.594Z,99902.00
2022-09-12T16:42:43.149Z,99914.00
2022-09-12T16:48:52.383Z,99925.00
2022-09-12T16:54:54.739Z,99937.00
2022-09-12T17:01:05.525Z,99946.00
2022-09-12T17:07:08.281Z,99956.00
2022-09-12T17:13:10.650Z,99961.00
2022-09-12T17:19:15.143Z,99959.00
2022-09-12T17:25:17.282Z,99960.00
2022-09-12T17:31:19.479Z,99978.00
2022-09-12T17:37:22.228Z,99984.00
2022-09-12T17:43:24.200Z,99991.00
2022-09-12T17:49:26.404Z,99996.00
2022-09-12T17:55:32.389Z,100005.00
2022-09-12T18:01:53.778Z,100014.00
2022-09-12T18:07:56.007Z,100026.00
2022-09-12T18:13:59.652Z,100018.00
2022-09-12T18:20:02.854Z,100032.00
2022-09-12T18:26:08.293Z,100032.00
2022-09-12T18:32:10.453Z,100043.00
2022-09-12T18:38:12.521Z,100042.00
2022-09-12T18:44:14.875Z,100049.00
2022-09-12T18:50:17.214Z,100048.00
2022-09-12T18:56:19.942Z,100066.00
2022-09-12T19:02:22.309Z,100057.00
2022-09-12T19:08:25.022Z,100057.00
2022-09-12T19:14:27.607Z,100062.00
2022-09-12T19:20:35.966Z,100068.00
2022-09-12T19:26:39.335Z,100067.00
2022-09-12T19:32:41.430Z,100061.00
2022-09-12T19:38:43.702Z,100077.00
2022-09-12T19:44:45.939Z,100074.00
2022-09-12T19:50:48.683Z,100077.00
2022-09-12T19:56:51.088Z,100083.00
2022-09-12T20:02:53.949Z,100086.00
2022-09-12T20:08:56.353Z,100086.00
2022-09-12T20:14:58.943Z,100099.00
2022-09-12T20:21:07.779Z,100098.00
2022-09-12T20:27:10.213Z,100112.00
2022-09-12T20:33:12.252Z,100128.00
2022-09-12T20:39:18.309Z,100142.00
2022-09-12T20:45:20.564Z,100139.00
2022-09-12T20:51:23.448Z,100136.00
2022-09-12T20:57:25.744Z,100145.00
2022-09-12T21:03:28.143Z,100147.00
2022-09-12T21:09:30.192Z,100162.00
2022-09-12T21:15:32.203Z,100162.00
2022-09-12T21:21:34.460Z,100159.00
2022-09-12T21:27:36.943Z,100165.00
2022-09-12T21:33:39.134Z,100156.00
2022-09-12T21:39:41.324Z,100166.00
2022-09-12T21:45:43.506Z,100170.00
2022-09-12T21:51:45.801Z,100172.00
2022-09-12T21:57:48.036Z,100176.00
2022-09-12T22:03:50.553Z,100180.00
2022-09-12T22:09:52.903Z,100183.00
2022-09-12T22:15:55.072Z,100179.00
2022-09-12T22:22:15.577Z,100170.00
2022-09-12T22:28:17.792Z,100171.00
2022-09-12T22:34:20.345Z,100169.00
2022-09-12T22:40:22.685Z,100162.00
2022-09-12T22:46:25.254Z,100165.00
2022-09-12T22:52:27.726Z,100161.00
2022-09-12T22:58:29.975Z,100153.00
2022-09-12T23:04:33.259Z,100158.00
2022-09-12T23:10:36.815Z,100163.00
2022-09-12T23:16:39.472Z,100150.00
2022-09-12T23:22:41.643Z,100148.00
2022-09-12T23:28:50.277Z,100144.00
2022-09-12T23:34:53.439Z,100138.00
2022-09-12T23:40:55.752Z,100138.00
2022-09-12T23:46:58.087Z,100141.00
2022-09-12T23:53:00.260Z,100137.00
2022-09-12T23:59:02.605Z,100134.00
